Time;durP1;ratioP1;P1;durP2;ratioP2;P2;SDS_P1;SDS_P2;PMS_P1;PMS_P2;Temp;Humidity;BMP_temperature;BMP_pressure;BME280_temperature;BME280_humidity;BME280_pressure;Samples;Min_cycle;Max_cycle;Signal;HPM_P1;HPM_P2
2022/07/16 00:04:48;;;;;;;2.38;0.75;;;;;;;13.30;100.00;98759.88;15271815;19;20014;-63
2022/07/16 00:09:54;;;;;;;2.53;0.80;;;;;;;13.22;100.00;98758.88;15273572;19;20010;-57
2022/07/16 00:14:59;;;;;;;2.20;0.85;;;;;;;13.14;100.00;98761.56;15266633;19;20591;-57
2022/07/16 00:20:09;;;;;;;2.42;0.90;;;;;;;13.05;100.00;98757.16;15276250;19;20365;-56
2022/07/16 00:25:14;;;;;;;3.83;0.80;;;;;;;12.99;100.00;98755.16;15273288;19;20038;-55
2022/07/16 00:30:19;;;;;;;4.60;0.80;;;;;;;12.91;100.00;98746.00;15274313;19;20018;-57
2022/07/16 00:35:27;;;;;;;3.10;0.90;;;;;;;12.86;100.00;98729.44;15277362;19;20011;-57
2022/07/16 00:40:33;;;;;;;2.10;0.70;;;;;;;12.79;100.00;98731.13;15277980;19;20055;-58
2022/07/16 00:45:38;;;;;;;2.72;0.85;;;;;;;12.72;100.00;98725.53;15269008;19;20376;-58
2022/07/16 00:50:46;;;;;;;4.85;0.88;;;;;;;12.62;100.00;98717.59;15274228;19;20374;-58
2022/07/16 00:55:51;;;;;;;2.63;0.70;;;;;;;12.55;100.00;98719.25;15270438;19;20010;-51
2022/07/16 01:00:56;;;;;;;2.72;0.90;;;;;;;12.48;100.00;98720.97;15279089;19;20035;-59
2022/07/16 01:06:04;;;;;;;1.80;0.80;;;;;;;12.42;100.00;98708.09;15280048;19;20015;-57
2022/07/16 01:11:12;;;;;;;2.58;0.80;;;;;;;12.36;100.00;98714.19;15273273;19;20014;-55
2022/07/16 01:16:17;;;;;;;2.25;0.80;;;;;;;12.28;100.00;98715.84;15270663;19;20010;-60
2022/07/16 01:21:26;;;;;;;2.40;0.90;;;;;;;12.22;100.00;98703.00;15270657;19;20018;-54
2022/07/16 01:26:34;;;;;;;1.85;0.88;;;;;;;12.12;100.00;98707.69;15276653;19;20006;-57
2022/07/16 01:31:39;;;;;;;5.82;1.00;;;;;;;12.07;100.00;98716.28;15270060;19;20010;-63
2022/07/16 01:36:54;;;;;;;3.42;0.95;;;;;;;11.98;100.00;98710.00;15275163;19;20018;-57
2022/07/16 01:42:03;;;;;;;3.95;0.88;;;;;;;11.92;100.00;98701.69;15273730;19;20498;-60
2022/07/16 01:47:10;;;;;;;1.65;0.80;;;;;;;11.84;100.00;98699.78;15275645;19;20051;-58
2022/07/16 01:52:18;;;;;;;3.55;0.90;;;;;;;11.76;100.00;98697.91;15266434;19;20021;-60
2022/07/16 01:57:26;;;;;;;4.88;0.90;;;;;;;11.68;100.00;98690.66;15274774;19;20014;-51
2022/07/16 02:02:31;;;;;;;2.13;0.90;;;;;;;11.63;100.00;98684.03;15266604;19;20022;-61
2022/07/16 02:07:36;;;;;;;1.75;0.93;;;;;;;11.56;100.00;98689.22;15270934;19;20074;-56
2022/07/16 02:12:44;;;;;;;2.53;1.00;;;;;;;11.52;100.00;98687.84;15270188;19;20017;-53
2022/07/16 02:17:55;;;;;;;2.85;1.00;;;;;;;11.45;100.00;98684.94;15274006;19;20010;-54
2022/07/16 02:23:00;;;;;;;1.80;1.00;;;;;;;11.31;100.00;98678.31;15264241;19;20022;-56
2022/07/16 02:28:09;;;;;;;3.13;1.00;;;;;;;11.24;100.00;98669.16;15272347;19;20023;-59
2022/07/16 02:33:16;;;;;;;2.55;0.95;;;;;;;11.18;100.00;98678.72;15267941;19;20025;-59
2022/07/16 02:38:21;;;;;;;2.90;1.00;;;;;;;11.14;100.00;98671.97;15288038;19;20014;-56
2022/07/16 02:43:29;;;;;;;2.30;0.90;;;;;;;11.07;100.00;98676.28;15283455;19;20003;-58
2022/07/16 02:48:34;;;;;;;4.15;0.90;;;;;;;11.02;100.00;98665.97;15285029;19;20035;-55
2022/07/16 02:53:39;;;;;;;2.00;0.70;;;;;;;10.94;100.00;98671.31;15276307;19;20022;-61
2022/07/16 02:58:47;;;;;;;2.08;0.82;;;;;;;10.90;100.00;98675.31;15286330;19;20034;-53
2022/07/16 03:03:52;;;;;;;1.55;0.90;;;;;;;10.82;100.00;98673.41;15275502;19;20026;-63
2022/07/16 03:08:57;;;;;;;2.88;0.90;;;;;;;10.75;100.00;98678.59;15280223;19;20023;-57
2022/07/16 03:14:04;;;;;;;1.63;0.80;;;;;;;10.69;100.00;98673.00;15284667;19;20026;-60
2022/07/16 03:19:09;;;;;;;1.55;0.90;;;;;;;10.63;100.00;98679.84;15286633;19;20497;-64
2022/07/16 03:24:14;;;;;;;4.90;0.95;;;;;;;10.56;100.00;98678.75;15283743;19;20018;-61
2022/07/16 03:29:22;;;;;;;2.50;0.90;;;;;;;10.50;100.00;98672.16;15284916;19;20013;-58
2022/07/16 03:34:27;;;;;;;2.13;0.90;;;;;;;10.46;100.00;98679.69;15285417;19;20014;-64
2022/07/16 03:39:33;;;;;;;2.67;1.00;;;;;;;10.46;100.00;98684.25;15283580;19;20011;-58
2022/07/16 03:44:40;;;;;;;3.10;1.10;;;;;;;10.44;100.00;98681.69;15277163;19;20015;-61
2022/07/16 03:49:45;;;;;;;2.53;1.00;;;;;;;10.44;100.00;98681.69;15284696;19;20035;-57
2022/07/16 03:54:51;;;;;;;2.67;0.90;;;;;;;10.45;100.00;98679.84;15282202;19;20007;-64
2022/07/16 03:59:58;;;;;;;1.85;1.00;;;;;;;10.50;100.00;98684.78;15279432;19;20014;-59
2022/07/16 04:05:05;;;;;;;1.38;0.90;;;;;;;10.51;100.00;98687.31;15279098;19;20010;-63
2022/07/16 04:10:10;;;;;;;2.92;1.05;;;;;;;10.56;100.00;98676.94;15277762;19;20010;-59
2022/07/16 04:15:18;;;;;;;1.42;0.80;;;;;;;10.62;100.00;98673.59;15280860;19;20015;-58
2022/07/16 04:20:23;;;;;;;2.38;0.90;;;;;;;10.73;100.00;98668.97;15282611;19;20042;-57
2022/07/16 04:25:28;;;;;;;2.20;0.85;;;;;;;10.79;100.00;98663.78;15280426;19;20006;-56
2022/07/16 04:30:37;;;;;;;1.92;0.90;;;;;;;10.86;100.00;98658.63;15276079;19;20082;-58
2022/07/16 04:35:44;;;;;;;1.70;0.88;;;;;;;10.95;100.00;98659.53;15278344;19;20055;-57
2022/07/16 04:40:49;;;;;;;2.10;0.90;;;;;;;11.05;100.00;98665.66;15275332;19;20015;-56
2022/07/16 04:45:56;;;;;;;3.72;1.00;;;;;;;11.14;100.00;98665.72;15280087;19;20358;-57
2022/07/16 04:51:01;;;;;;;3.35;1.00;;;;;;;11.21;100.00;98666.78;15277054;19;20062;-58
2022/07/16 04:56:08;;;;;;;3.28;0.77;;;;;;;11.31;100.00;98672.91;15276150;19;20022;-56
2022/07/16 05:01:15;;;;;;;4.47;1.00;;;;;;;11.41;100.00;98665.53;15270783;19;20485;-62
2022/07/16 05:06:20;;;;;;;1.52;0.80;;;;;;;11.56;100.00;98668.47;15275708;19;20014;-61
2022/07/16 05:11:26;;;;;;;2.50;1.00;;;;;;;11.73;100.00;98665.84;15275337;19;20049;-58
2022/07/16 05:16:34;;;;;;;2.40;0.95;;;;;;;11.91;100.00;98663.06;15275103;19;20475;-56
2022/07/16 05:21:39;;;;;;;3.75;0.90;;;;;;;12.09;100.00;98654.00;15180608;19;20039;-59
2022/07/16 05:26:44;;;;;;;1.40;0.80;;;;;;;12.33;100.00;98655.94;15277882;19;20022;-60
2022/07/16 05:31:52;;;;;;;1.70;0.85;;;;;;;12.56;100.00;98648.00;14762902;19;10001179;-63
2022/07/16 05:36:57;;;;;;;2.22;0.88;;;;;;;12.81;100.00;98641.75;15268523;19;20018;-63
2022/07/16 05:42:07;;;;;;;1.70;0.77;;;;;;;13.04;100.00;98649.97;15269700;19;20493;-61
2022/07/16 05:47:15;;;;;;;2.53;0.90;;;;;;;13.20;100.00;98644.56;15274441;19;20093;-61
2022/07/16 05:52:20;;;;;;;5.20;0.90;;;;;;;13.39;100.00;98642.47;15272985;19;20508;-63
2022/07/16 05:57:25;;;;;;;2.03;0.70;;;;;;;13.52;100.00;98650.09;15275419;19;20024;-58
2022/07/16 06:02:32;;;;;;;3.50;1.00;;;;;;;13.64;100.00;98653.22;15273617;19;20488;-59
2022/07/16 06:07:37;;;;;;;4.85;0.90;;;;;;;13.81;100.00;98654.88;15271706;19;20018;-62
2022/07/16 06:12:42;;;;;;;2.33;0.77;;;;;;;14.20;100.00;98663.97;15282062;19;20539;-62
2022/07/16 06:17:49;;;;;;;1.67;0.80;;;;;;;14.47;100.00;98661.72;15282762;19;20029;-62
2022/07/16 06:22:56;;;;;;;6.85;0.98;;;;;;;14.65;100.00;98658.72;15282640;19;20036;-59
2022/07/16 06:28:01;;;;;;;1.58;0.70;;;;;;;14.95;100.00;98654.25;15289086;19;20007;-61
2022/07/16 06:33:09;;;;;;;1.75;0.80;;;;;;;15.37;100.00;98643.00;15286658;19;20022;-60
2022/07/16 06:38:19;;;;;;;2.17;0.63;;;;;;;15.95;100.00;98634.16;15283682;19;20027;-60
2022/07/16 06:43:24;;;;;;;1.88;0.70;;;;;;;16.46;100.00;98641.41;15281003;19;20015;-60
2022/07/16 06:48:33;;;;;;;2.03;0.73;;;;;;;16.92;100.00;98635.53;15284856;19;20014;-60
2022/07/16 06:53:39;;;;;;;3.08;0.80;;;;;;;17.11;100.00;98649.50;15274821;19;20036;-60
2022/07/16 06:58:44;;;;;;;2.13;0.80;;;;;;;17.12;100.00;98651.19;15285397;19;20458;-59
2022/07/16 07:03:52;;;;;;;5.13;0.70;;;;;;;17.18;100.00;98653.13;15281424;19;20061;-59
2022/07/16 07:08:58;;;;;;;6.07;0.90;;;;;;;17.46;100.00;98648.69;15282450;19;20030;-59
2022/07/16 07:14:03;;;;;;;3.58;0.85;;;;;;;17.84;100.00;98660.00;15270381;19;20019;-59
2022/07/16 07:19:11;;;;;;;6.75;0.70;;;;;;;17.93;100.00;98657.94;15280258;19;20018;-59
2022/07/16 07:24:17;;;;;;;2.50;1.00;;;;;;;18.05;100.00;98655.50;15274565;19;20014;-62
2022/07/16 07:29:42;;;;;;;1.85;0.60;;;;;;;18.16;100.00;98667.72;15280571;19;20011;-62
2022/07/16 07:34:49;;;;;;;2.88;0.70;;;;;;;18.23;98.45;98668.56;15279314;19;20043;-64
2022/07/16 07:39:55;;;;;;;5.00;0.90;;;;;;;18.05;100.00;98674.59;15281999;19;20018;-64
2022/07/16 07:45:00;;;;;;;3.67;0.80;;;;;;;18.09;100.00;98673.13;15271194;19;20026;-63
2022/07/16 07:50:10;;;;;;;3.00;0.60;;;;;;;17.93;98.68;98673.47;15281145;19;20027;-61
2022/07/16 07:55:15;;;;;;;0.85;0.55;;;;;;;18.00;100.00;98680.66;15271190;19;20014;-62
2022/07/16 08:00:26;;;;;;;1.88;0.70;;;;;;;17.97;100.00;98677.50;15281937;19;20495;-63
2022/07/16 08:05:34;;;;;;;2.55;0.93;;;;;;;17.97;93.00;98674.75;15276463;19;20043;-62
2022/07/16 08:10:40;;;;;;;3.35;0.68;;;;;;;18.02;92.77;98677.75;15276902;19;20011;-63
2022/07/16 08:15:45;;;;;;;0.95;0.55;;;;;;;18.37;91.83;98674.91;15266042;19;20406;-61
2022/07/16 08:20:53;;;;;;;3.13;0.70;;;;;;;18.38;89.33;98675.75;15277357;19;20007;-60
2022/07/16 08:26:00;;;;;;;1.17;0.63;;;;;;;18.29;88.61;98672.34;15266950;19;20010;-62
2022/07/16 08:31:11;;;;;;;9.38;0.80;;;;;;;18.27;91.03;98669.03;15265850;19;20010;-61
2022/07/16 08:36:19;;;;;;;2.55;0.82;;;;;;;18.33;90.46;98679.09;15268392;19;20014;-61
2022/07/16 08:41:26;;;;;;;5.18;0.80;;;;;;;18.26;88.88;98679.06;15273289;19;20451;-62
2022/07/16 08:46:32;;;;;;;2.58;0.60;;;;;;;18.38;90.15;98681.19;15267980;19;20018;-61
2022/07/16 08:51:42;;;;;;;1.42;0.68;;;;;;;18.51;89.37;98669.50;15265393;19;20014;-62
2022/07/16 08:56:47;;;;;;;2.75;0.73;;;;;;;18.67;86.44;98680.00;15270499;19;20091;-62
2022/07/16 09:01:54;;;;;;;2.25;0.70;;;;;;;18.79;85.50;98691.16;15264208;19;20467;-61
2022/07/16 09:07:03;;;;;;;2.67;0.63;;;;;;;18.90;84.32;98696.00;15273079;19;20014;-61
2022/07/16 09:12:08;;;;;;;4.10;0.70;;;;;;;19.36;82.87;98688.88;15277534;19;20360;-61
2022/07/16 09:17:31;;;;;;;3.28;0.80;;;;;;;19.31;80.25;98707.81;15276657;19;20129;-62
2022/07/16 09:22:42;;;;;;;5.38;0.90;;;;;;;19.63;77.58;98716.16;15270166;19;20011;-62
2022/07/16 09:27:47;;;;;;;5.70;0.80;;;;;;;19.45;80.23;98716.81;15278062;19;20082;-62
2022/07/16 09:32:53;;;;;;;3.45;0.90;;;;;;;19.23;83.19;98721.66;15267462;19;20510;-62
2022/07/16 09:38:02;;;;;;;3.28;0.95;;;;;;;19.19;86.56;98725.88;15278471;19;20086;-62
2022/07/16 09:43:22;;;;;;;4.90;0.90;;;;;;;18.86;91.44;98737.56;15276879;19;20053;-62
2022/07/16 09:48:29;;;;;;;2.08;0.70;;;;;;;18.55;97.36;98731.63;15290154;19;20011;-62
2022/07/16 09:53:43;;;;;;;3.55;0.90;;;;;;;18.21;100.00;98746.19;15279048;19;20035;-62
2022/07/16 09:58:50;;;;;;;2.55;0.90;;;;;;;18.35;100.00;98752.53;15290884;19;20043;-62
2022/07/16 10:03:55;;;;;;;2.08;0.80;;;;;;;18.63;100.00;98756.00;15278572;19;20471;-62
2022/07/16 10:09:10;;;;;;;2.70;0.80;;;;;;;19.24;100.00;98777.97;15291557;19;20027;-61
2022/07/16 10:19:57;;;;;;;3.90;0.80;;;;;;;19.11;96.54;98765.16;15286875;19;20042;-62
2022/07/16 10:25:13;;;;;;;4.03;0.80;;;;;;;18.72;100.00;98778.50;15279364;19;20003;-65
2022/07/16 10:30:20;;;;;;;2.08;0.68;;;;;;;18.34;100.00;98776.25;15288862;19;20006;-63
2022/07/16 10:35:35;;;;;;;1.50;0.60;;;;;;;18.17;100.00;98800.28;15285341;19;20022;-64
2022/07/16 10:40:45;;;;;;;5.63;0.70;;;;;;;18.01;100.00;98796.00;15288959;19;20019;-61
2022/07/16 10:45:54;;;;;;;1.23;0.52;;;;;;;17.70;100.00;98789.91;15284540;19;20022;-61
2022/07/16 10:51:15;;;;;;;2.25;0.60;;;;;;;17.66;100.00;98815.84;15284835;19;20021;-62
2022/07/16 10:56:39;;;;;;;0.82;0.50;;;;;;;17.60;100.00;98816.66;15277118;19;20019;-60
2022/07/16 11:01:46;;;;;;;0.98;0.50;;;;;;;17.50;100.00;98816.97;15279837;19;20491;-57
2022/07/16 11:06:52;;;;;;;8.68;0.60;;;;;;;17.24;100.00;98818.41;15290301;19;20018;-60
2022/07/16 11:12:12;;;;;;;0.68;0.50;;;;;;;16.73;100.00;98837.53;15283287;19;20047;-61
2022/07/16 11:17:18;;;;;;;0.90;0.63;;;;;;;16.59;100.00;98831.94;15297278;19;20007;-61
2022/07/16 11:22:27;;;;;;;4.22;0.50;;;;;;;16.84;100.00;98836.19;15286608;19;20018;-62
2022/07/16 11:27:36;;;;;;;1.98;0.38;;;;;;;17.30;100.00;98821.41;15286151;19;20015;-63
2022/07/16 11:32:44;;;;;;;1.45;0.65;;;;;;;17.82;100.00;98822.06;15281143;19;20014;-63
2022/07/16 11:37:50;;;;;;;2.17;0.50;;;;;;;18.36;100.00;98830.56;15287646;19;20010;-64
2022/07/16 11:43:07;;;;;;;1.90;0.38;;;;;;;18.33;100.00;98824.50;15280268;19;20054;-60
2022/07/16 11:48:37;;;;;;;2.92;0.40;;;;;;;18.66;100.00;98813.94;15285797;19;20829;-60
2022/07/16 11:53:42;;;;;;;0.63;0.40;;;;;;;18.73;100.00;98814.78;15283119;19;20242;-63
2022/07/16 11:58:50;;;;;;;2.22;0.40;;;;;;;18.85;100.00;98823.25;15290506;19;20007;-61
2022/07/16 12:03:56;;;;;;;0.60;0.40;;;;;;;19.09;100.00;98821.84;15278962;19;20036;-61
2022/07/16 12:09:01;;;;;;;0.75;0.38;;;;;;;19.47;100.00;98826.75;15282143;19;20022;-61
2022/07/16 12:14:09;;;;;;;2.63;0.50;;;;;;;19.79;96.47;98812.44;15278792;19;20026;-61
2022/07/16 12:19:16;;;;;;;0.50;0.40;;;;;;;20.30;88.12;98828.16;15284028;19;20023;-61
2022/07/16 12:24:31;;;;;;;1.05;0.40;;;;;;;20.45;86.22;98827.06;15284228;19;20015;-61
2022/07/16 12:29:42;;;;;;;0.50;0.40;;;;;;;20.54;80.07;98800.28;15289452;19;20500;-61
2022/07/16 12:34:47;;;;;;;3.80;0.40;;;;;;;21.07;75.32;98823.88;15271623;19;20360;-63
2022/07/16 12:39:52;;;;;;;2.20;0.30;;;;;;;21.00;75.66;98823.91;15283079;19;20074;-61
2022/07/16 12:45:00;;;;;;;0.93;0.38;;;;;;;21.47;70.69;98811.78;15274609;19;20401;-60
2022/07/16 12:50:06;;;;;;;2.28;0.40;;;;;;;21.36;62.35;98827.03;15288101;19;20016;-62
2022/07/16 13:00:31;;;;;;;0.50;0.40;;;;;;;21.37;61.73;98834.19;15284013;19;20031;-61
2022/07/16 13:05:36;;;;;;;0.98;0.30;;;;;;;21.83;59.88;98827.53;15270818;19;20023;-60
2022/07/16 13:10:41;;;;;;;0.80;0.43;;;;;;;21.93;57.63;98823.47;15281624;19;20137;-61
2022/07/16 13:15:49;;;;;;;1.08;0.30;;;;;;;21.70;55.62;98828.50;15278101;19;20343;-61
2022/07/16 13:20:54;;;;;;;2.45;0.40;;;;;;;21.61;56.32;98829.00;15280653;19;20035;-64
2022/07/16 13:25:59;;;;;;;0.85;0.32;;;;;;;21.72;54.96;98831.00;15275854;19;20014;-61
2022/07/16 13:31:07;;;;;;;0.68;0.40;;;;;;;21.46;55.85;98824.63;15279429;19;20010;-61
2022/07/16 13:36:12;;;;;;;1.85;0.38;;;;;;;21.45;55.91;98831.19;15276297;19;20027;-61
2022/07/16 13:41:18;;;;;;;0.57;0.30;;;;;;;21.54;56.69;98829.88;15274718;19;20478;-60
2022/07/16 13:46:26;;;;;;;1.02;0.40;;;;;;;21.43;55.53;98840.69;15269833;19;20014;-62
2022/07/16 13:51:31;;;;;;;0.30;0.30;;;;;;;21.65;54.20;98835.72;15272723;19;20011;-63
2022/07/16 13:56:48;;;;;;;1.45;0.50;;;;;;;21.90;53.96;98827.47;15278589;19;20030;-63
2022/07/16 14:01:55;;;;;;;3.72;0.45;;;;;;;22.53;52.44;98836.56;15275413;19;20010;-62
2022/07/16 14:07:00;;;;;;;2.03;0.35;;;;;;;23.02;49.53;98822.00;15277626;19;20099;-62
2022/07/16 14:12:06;;;;;;;2.05;0.32;;;;;;;22.91;49.35;98834.59;15270309;19;20078;-60
2022/07/16 14:17:14;;;;;;;1.58;0.40;;;;;;;22.34;49.11;98834.84;15282838;19;20013;-63
2022/07/16 14:22:20;;;;;;;2.60;0.40;;;;;;;22.05;51.26;98837.25;15280603;19;20480;-61
2022/07/16 14:27:25;;;;;;;3.40;0.40;;;;;;;21.57;52.35;98827.75;15282063;19;20039;-62
2022/07/16 14:32:33;;;;;;;1.00;0.40;;;;;;;21.88;51.12;98839.72;15271672;19;20010;-59
2022/07/16 14:37:40;;;;;;;0.85;0.40;;;;;;;22.61;49.99;98828.00;15296375;19;20014;-54
2022/07/16 14:42:47;;;;;;;1.08;0.40;;;;;;;23.06;47.64;98839.66;15289999;19;20374;-57
2022/07/16 14:47:56;;;;;;;0.52;0.32;;;;;;;23.49;46.88;98821.31;15296480;19;20015;-58
2022/07/16 14:53:01;;;;;;;0.32;0.30;;;;;;;23.52;43.49;98827.16;15296865;19;20021;-60
2022/07/16 14:58:06;;;;;;;1.08;0.40;;;;;;;23.73;42.99;98827.69;15296735;19;20043;-58
2022/07/16 15:03:21;;;;;;;0.35;0.20;;;;;;;24.16;41.05;98812.78;15296953;19;20022;-58
2022/07/16 15:08:26;;;;;;;1.23;0.40;;;;;;;23.78;40.19;98813.22;15301401;19;20492;-59
2022/07/16 15:13:32;;;;;;;0.57;0.40;;;;;;;23.62;40.57;98821.09;15289271;19;20014;-60
2022/07/16 15:18:40;;;;;;;1.52;0.47;;;;;;;23.68;41.83;98825.66;15301278;19;20007;-57
2022/07/16 15:23:45;;;;;;;0.82;0.45;;;;;;;23.57;42.48;98828.38;15297633;19;20014;-61
2022/07/16 15:28:50;;;;;;;3.17;0.50;;;;;;;23.49;43.71;98837.81;15293940;19;20014;-59
2022/07/16 15:33:58;;;;;;;1.38;0.40;;;;;;;23.80;43.08;98827.59;15293744;19;20010;-62
2022/07/16 15:39:04;;;;;;;0.73;0.30;;;;;;;23.62;40.68;98823.84;15300473;19;20018;-55
2022/07/16 15:44:12;;;;;;;1.17;0.45;;;;;;;23.53;41.21;98833.53;15292788;19;20590;-63
2022/07/16 15:49:20;;;;;;;2.08;0.50;;;;;;;23.38;42.20;98845.78;15287451;19;20014;-59
2022/07/16 15:54:26;;;;;;;1.30;0.40;;;;;;;23.72;41.39;98833.41;15291358;19;20456;-56
2022/07/16 15:59:31;;;;;;;0.57;0.30;;;;;;;23.87;42.13;98839.31;15286922;19;20480;-59
2022/07/16 16:10:30;;;;;;;3.17;0.50;;;;;;;23.95;40.18;98852.72;15289575;19;19990;-59
2022/07/16 16:15:35;;;;;;;1.92;0.43;;;;;;;23.80;38.06;98858.69;15283469;19;20048;-59
2022/07/16 16:20:41;;;;;;;0.52;0.43;;;;;;;23.79;38.33;98864.44;15285456;19;20018;-58
2022/07/16 16:25:49;;;;;;;5.90;0.30;;;;;;;23.72;38.54;98863.69;15283847;19;20039;-57
2022/07/16 16:30:54;;;;;;;0.82;0.30;;;;;;;23.34;38.79;98880.31;15285639;19;20014;-60
2022/07/16 16:36:00;;;;;;;0.73;0.40;;;;;;;23.53;38.19;98878.34;15290163;19;20042;-61
2022/07/16 16:41:09;;;;;;;1.02;0.40;;;;;;;23.49;39.38;98887.31;15290469;19;20010;-57
2022/07/16 16:46:14;;;;;;;0.80;0.38;;;;;;;23.40;39.56;98884.06;15286647;19;20039;-62
2022/07/16 16:51:19;;;;;;;1.42;0.47;;;;;;;23.62;39.27;98886.28;15281434;19;20023;-61
2022/07/16 17:02:10;;;;;;;2.10;0.60;;;;;;;23.32;41.05;98895.38;15280674;19;20050;-56
2022/07/16 17:07:15;;;;;;;2.95;0.40;;;;;;;23.53;40.85;98902.28;15277975;19;20002;-62
2022/07/16 17:12:20;;;;;;;1.17;0.50;;;;;;;23.20;40.93;98909.09;15278066;19;20031;-63
2022/07/16 17:17:27;;;;;;;1.45;0.50;;;;;;;23.02;40.71;98916.25;15278705;19;20475;-61
2022/07/16 17:22:32;;;;;;;0.65;0.40;;;;;;;23.20;40.78;98920.91;15268546;19;20018;-63
2022/07/16 17:27:38;;;;;;;1.13;0.45;;;;;;;23.13;40.53;98919.28;15278402;19;20078;-63
2022/07/16 17:32:46;;;;;;;2.85;0.60;;;;;;;22.84;40.31;98924.50;15276305;19;20050;-63
2022/07/16 17:37:52;;;;;;;1.33;0.47;;;;;;;22.74;40.17;98931.38;15272116;19;20010;-63
2022/07/16 17:42:57;;;;;;;1.05;0.40;;;;;;;22.81;39.77;98930.47;15276953;19;20006;-64
2022/07/16 17:48:05;;;;;;;2.10;0.40;;;;;;;22.69;40.45;98950.44;15276105;19;20018;-62
2022/07/16 17:53:11;;;;;;;2.83;0.60;;;;;;;22.52;41.22;98952.13;15276055;19;20476;-64
2022/07/16 17:58:16;;;;;;;2.05;0.50;;;;;;;22.63;40.93;98957.69;15271505;19;20018;-62
2022/07/16 18:03:23;;;;;;;1.90;0.45;;;;;;;22.45;41.43;98958.50;15275899;19;20025;-63
2022/07/16 18:08:28;;;;;;;1.45;0.50;;;;;;;22.46;41.17;98970.34;15289113;19;20010;-64
2022/07/16 18:13:33;;;;;;;1.60;0.47;;;;;;;22.07;41.91;98970.41;15286706;19;20377;-61
2022/07/16 18:18:43;;;;;;;3.20;0.60;;;;;;;22.00;41.20;98978.69;15290104;19;20043;-64
2022/07/16 18:23:48;;;;;;;1.50;0.70;;;;;;;22.01;41.62;98969.38;15281677;19;20451;-65
2022/07/16 18:28:53;;;;;;;2.78;0.50;;;;;;;21.99;42.91;98989.88;15281530;19;20823;-63
2022/07/16 18:34:01;;;;;;;2.85;0.60;;;;;;;21.78;43.76;98991.06;15278086;19;20047;-64
2022/07/16 18:39:08;;;;;;;3.75;0.80;;;;;;;21.65;44.25;99001.06;15285177;19;20010;-64
2022/07/16 18:44:13;;;;;;;2.38;0.70;;;;;;;21.32;44.93;99006.69;15276351;19;20019;-62
2022/07/16 18:49:21;;;;;;;1.80;0.60;;;;;;;20.93;45.69;99012.09;15289330;19;20015;-61
2022/07/16 18:54:26;;;;;;;2.65;0.70;;;;;;;20.31;46.49;99015.91;15282932;19;20010;-62
2022/07/16 18:59:31;;;;;;;1.98;0.85;;;;;;;20.22;47.23;99019.91;15278949;19;20479;-62
2022/07/16 19:04:39;;;;;;;1.48;0.60;;;;;;;19.92;47.98;99030.38;15282032;19;20015;-61
2022/07/16 19:09:44;;;;;;;2.00;0.75;;;;;;;19.71;48.14;99038.50;15286924;19;20368;-61
2022/07/16 19:14:49;;;;;;;4.97;0.60;;;;;;;19.44;48.80;99044.94;15278606;19;20359;-61
2022/07/16 19:19:56;;;;;;;1.85;0.70;;;;;;;19.24;48.63;99053.84;15288036;19;20333;-61
2022/07/16 19:25:03;;;;;;;1.48;0.70;;;;;;;19.03;49.61;99061.09;15279901;19;20018;-62
2022/07/16 19:30:11;;;;;;;1.85;0.60;;;;;;;18.85;49.24;99077.13;15287311;19;20082;-62
2022/07/16 19:35:19;;;;;;;2.00;0.75;;;;;;;18.67;50.27;99089.38;15276305;19;20035;-62
2022/07/16 19:40:24;;;;;;;1.35;0.70;;;;;;;18.46;50.76;99093.81;15284072;19;20039;-62
2022/07/16 19:45:29;;;;;;;2.88;0.80;;;;;;;18.23;51.49;99101.38;15276597;19;20002;-64
2022/07/16 19:50:37;;;;;;;2.60;0.73;;;;;;;18.03;51.46;99115.66;15285701;19;20031;-63
2022/07/16 20:01:00;;;;;;;2.58;0.70;;;;;;;17.76;52.39;99115.28;15282221;19;20529;-61
2022/07/16 20:06:08;;;;;;;3.20;0.80;;;;;;;17.72;52.73;99127.59;15268917;19;20035;-63
2022/07/16 20:11:13;;;;;;;2.80;0.70;;;;;;;17.62;53.31;99135.22;15281714;19;20472;-62
2022/07/16 20:16:18;;;;;;;2.13;0.70;;;;;;;17.47;53.90;99133.34;15269898;19;20002;-62
2022/07/16 20:21:37;;;;;;;2.72;0.57;;;;;;;17.31;54.55;99133.56;15280023;19;20014;-62
2022/07/16 20:26:43;;;;;;;1.30;0.57;;;;;;;17.23;54.64;99140.78;15280526;19;20021;-63
2022/07/16 20:31:48;;;;;;;3.28;0.70;;;;;;;17.13;55.45;99148.38;15284928;19;20018;-63
2022/07/16 20:36:55;;;;;;;1.83;0.70;;;;;;;17.08;55.45;99150.81;15271593;19;20385;-62
2022/07/16 20:42:01;;;;;;;1.67;0.77;;;;;;;17.00;56.19;99153.59;15258257;19;20022;-63
2022/07/16 20:47:06;;;;;;;2.58;0.80;;;;;;;16.91;56.92;99159.09;15281204;19;20018;-61
2022/07/16 20:52:14;;;;;;;2.88;0.77;;;;;;;16.83;57.68;99175.50;15275979;19;20074;-63
2022/07/16 20:57:19;;;;;;;3.47;0.90;;;;;;;16.79;59.34;99176.91;15279350;19;20498;-62
2022/07/16 21:02:28;;;;;;;3.05;0.77;;;;;;;16.66;60.17;99182.09;15279272;19;20026;-62
2022/07/16 21:07:36;;;;;;;4.72;0.90;;;;;;;16.52;61.85;99184.63;15276887;19;20025;-62
2022/07/16 21:12:42;;;;;;;2.85;0.77;;;;;;;16.39;62.06;99185.19;15277325;19;20022;-63
2022/07/16 21:17:47;;;;;;;2.97;0.90;;;;;;;16.37;62.74;99189.13;15281619;19;20039;-63
2022/07/16 21:22:55;;;;;;;1.98;0.70;;;;;;;16.27;63.54;99194.78;15274009;19;20018;-63
2022/07/16 21:28:00;;;;;;;2.42;0.77;;;;;;;16.22;64.02;99203.47;15283260;19;20006;-63
2022/07/16 21:33:05;;;;;;;2.50;0.70;;;;;;;16.15;64.43;99206.06;15279067;19;20043;-63
2022/07/16 21:38:13;;;;;;;2.03;0.80;;;;;;;16.10;64.95;99207.63;15282386;19;20014;-63
2022/07/16 21:43:19;;;;;;;1.98;0.80;;;;;;;16.02;66.83;99208.50;15285567;19;20014;-61
2022/07/16 21:48:24;;;;;;;4.20;0.90;;;;;;;15.76;69.19;99223.19;15292331;19;20015;-61
2022/07/16 21:53:32;;;;;;;5.60;1.10;;;;;;;15.51;71.94;99230.56;15285042;19;20034;-61
2022/07/16 21:58:37;;;;;;;4.65;0.95;;;;;;;15.32;73.28;99231.78;15294494;19;20467;-62
2022/07/16 22:15:05;;;;;;;1.63;0.73;;;;;;;14.86;81.64;99254.03;15280307;19;20011;-62
2022/07/16 22:25:30;;;;;;;3.53;0.90;;;;;;;14.77;82.11;99251.31;15279074;19;20018;-60
2022/07/16 22:30:38;;;;;;;3.22;1.08;;;;;;;14.72;84.26;99255.53;15290178;19;20019;-62
2022/07/16 22:35:43;;;;;;;1.80;0.82;;;;;;;14.67;86.39;99276.88;15284856;19;20488;-63
2022/07/16 22:40:48;;;;;;;4.78;0.85;;;;;;;14.69;87.26;99274.88;15289516;19;20476;-62
2022/07/16 22:45:56;;;;;;;2.28;0.75;;;;;;;14.68;87.54;99265.88;15275769;19;20017;-62
2022/07/16 22:51:01;;;;;;;3.53;0.80;;;;;;;14.64;90.49;99267.22;15288303;19;20034;-62
2022/07/16 22:56:07;;;;;;;4.50;0.88;;;;;;;14.44;92.56;99275.63;15283609;19;20014;-62
2022/07/16 23:01:15;;;;;;;4.78;0.70;;;;;;;14.28;95.39;99278.31;15281115;19;20003;-63
2022/07/16 23:06:32;;;;;;;3.42;0.70;;;;;;;14.08;98.46;99285.84;15285849;19;20018;-61
2022/07/16 23:17:15;;;;;;;2.72;0.77;;;;;;;13.84;99.87;99285.56;15275547;19;19974;-62
2022/07/16 23:22:21;;;;;;;4.57;0.80;;;;;;;13.73;100.00;99293.94;15286320;19;20017;-62
2022/07/16 23:27:26;;;;;;;3.30;0.90;;;;;;;13.60;100.00;99290.81;15283103;19;20359;-61
2022/07/16 23:32:39;;;;;;;3.90;0.98;;;;;;;13.54;100.00;99293.16;15280162;19;20010;-62
2022/07/16 23:37:44;;;;;;;2.58;0.77;;;;;;;13.53;100.00;99296.88;15282592;19;20039;-62
2022/07/16 23:42:49;;;;;;;2.70;0.90;;;;;;;13.50;100.00;99297.19;15283875;19;20043;-62
2022/07/16 23:47:56;;;;;;;4.13;0.80;;;;;;;13.41;100.00;99292.75;15285890;19;20039;-61
2022/07/16 23:53:02;;;;;;;3.10;0.95;;;;;;;13.29;100.00;99305.63;15278434;19;20044;-61
2022/07/16 23:58:07;;;;;;;2.85;0.88;;;;;;;13.24;100.00;99302.56;15280986;19;20040;-61
